Time;durP1;ratioP1;P1;durP2;ratioP2;P2;SDS_P1;SDS_P2;PMS_P1;PMS_P2;Temp;Humidity;BMP_temperature;BMP_pressure;BME280_temperature;BME280_humidity;BME280_pressure;Samples;Min_cycle;Max_cycle;Signal;HPM_P1;HPM_P2
2023/03/19 00:03:05;;;;;;;3.92;1.83;;;;;;;12.85;53.96;99438.28;12210474;19;20131;-84
2023/03/19 00:07:09;;;;;;;3.97;1.58;;;;;;;12.71;54.29;99448.19;12212181;19;20066;-80
2023/03/19 00:11:12;;;;;;;5.00;1.85;;;;;;;12.56;54.61;99446.22;12196668;19;20006;-83
2023/03/19 00:15:14;;;;;;;6.07;2.95;;;;;;;12.43;55.38;99441.19;12211204;19;20030;-83
2023/03/19 00:19:16;;;;;;;4.93;2.03;;;;;;;12.27;55.65;99443.91;12212717;19;20006;-83
2023/03/19 00:23:18;;;;;;;3.63;1.77;;;;;;;12.15;56.26;99443.28;12192366;19;20028;-82
2023/03/19 00:27:19;;;;;;;5.13;2.10;;;;;;;12.00;57.59;99441.28;12217398;19;20027;-83
2023/03/19 00:31:22;;;;;;;5.35;2.58;;;;;;;11.86;58.17;99435.41;12233040;19;20044;-82
2023/03/19 00:35:24;;;;;;;4.35;2.00;;;;;;;11.77;58.56;99438.91;12197840;19;20051;-83
2023/03/19 00:39:25;;;;;;;6.18;2.22;;;;;;;11.70;58.92;99450.19;12222034;19;20071;-83
2023/03/19 00:43:27;;;;;;;4.45;2.20;;;;;;;11.67;58.99;99445.22;12215540;19;20038;-83
2023/03/19 00:47:29;;;;;;;8.10;2.10;;;;;;;11.66;58.89;99449.06;12190168;19;20023;-82
2023/03/19 00:51:30;;;;;;;4.80;2.10;;;;;;;11.70;59.44;99443.84;12221061;19;20018;-83
2023/03/19 00:55:32;;;;;;;5.40;1.98;;;;;;;11.69;59.80;99454.06;12217241;19;20032;-82
2023/03/19 00:59:34;;;;;;;4.05;1.60;;;;;;;11.66;59.98;99450.97;12199841;19;20490;-82
2023/03/19 01:03:36;;;;;;;4.47;2.10;;;;;;;11.63;60.03;99455.94;12232105;19;20399;-80
2023/03/19 01:07:39;;;;;;;5.00;2.10;;;;;;;11.66;60.39;99445.47;12208873;19;20010;-80
2023/03/19 01:11:40;;;;;;;5.68;1.90;;;;;;;11.64;60.43;99451.25;12174504;19;20532;-80
2023/03/19 01:15:42;;;;;;;3.27;1.87;;;;;;;11.64;60.64;99459.53;12196440;19;20010;-82
2023/03/19 01:19:44;;;;;;;5.57;1.60;;;;;;;11.63;61.17;99450.44;12193517;19;20017;-83
2023/03/19 01:23:50;;;;;;;4.70;1.50;;;;;;;11.67;61.32;99447.13;12192095;19;20487;-81
2023/03/19 01:27:53;;;;;;;5.70;1.63;;;;;;;11.68;61.26;99446.03;12194004;19;20015;-82
2023/03/19 01:31:56;;;;;;;4.03;1.70;;;;;;;11.64;61.22;99442.97;12181328;19;20002;-82
2023/03/19 01:36:16;;;;;;;5.55;1.90;;;;;;;11.60;61.46;99448.19;12197307;19;20026;-81
2023/03/19 01:40:31;;;;;;;3.15;1.73;;;;;;;11.56;61.88;99437.94;12200134;19;20003;-82
2023/03/19 01:44:35;;;;;;;7.30;2.08;;;;;;;11.53;61.97;99439.31;12178999;19;20003;-82
2023/03/19 01:48:58;;;;;;;;;;;;;;;11.50;62.22;99441.78;12221112;19;20017;-82
2023/03/19 01:53:01;;;;;;;4.15;1.60;;;;;;;11.43;62.02;99444.75;12201171;19;19910;-81
2023/03/19 01:57:23;;;;;;;5.47;1.67;;;;;;;11.37;62.42;99446.66;12205493;19;20026;-83
2023/03/19 02:02:06;;;;;;;4.18;1.88;;;;;;;11.38;62.78;99447.47;12208122;19;20082;-82
2023/03/19 02:06:11;;;;;;;5.28;2.10;;;;;;;11.33;63.76;99448.28;12185276;19;20007;-82
2023/03/19 02:10:15;;;;;;;7.00;2.35;;;;;;;11.39;63.33;99440.84;12208931;19;20003;-82
2023/03/19 02:14:18;;;;;;;3.90;2.15;;;;;;;11.50;62.89;99439.84;12187705;19;20010;-82
2023/03/19 02:18:20;;;;;;;9.38;2.58;;;;;;;11.58;62.95;99438.53;12208048;19;20018;-82
2023/03/19 02:22:27;;;;;;;7.28;2.30;;;;;;;11.64;62.83;99442.97;12208365;19;20022;-83
2023/03/19 02:26:30;;;;;;;5.55;1.88;;;;;;;11.67;62.77;99436.09;12189012;19;20101;-80
2023/03/19 02:30:36;;;;;;;6.28;2.10;;;;;;;11.70;63.38;99452.94;12207328;19;20064;-80
2023/03/19 02:34:43;;;;;;;5.45;2.50;;;;;;;11.72;62.93;99441.63;12193603;19;20015;-82
2023/03/19 02:38:47;;;;;;;4.68;1.90;;;;;;;11.76;62.95;99449.13;12168698;19;20007;-82
2023/03/19 02:42:48;;;;;;;;;;;;;;;11.78;62.82;99443.34;12192154;19;20067;-82
2023/03/19 02:46:50;;;;;;;7.05;2.10;;;;;;;11.84;62.91;99447.81;12171206;19;19918;-82
2023/03/19 02:50:52;;;;;;;5.20;2.00;;;;;;;11.84;62.95;99453.31;12193830;19;20018;-82
2023/03/19 02:54:54;;;;;;;5.03;1.83;;;;;;;11.79;63.28;99456.88;12193074;19;20385;-82
2023/03/19 02:58:56;;;;;;;4.77;2.07;;;;;;;11.77;63.82;99461.00;12169667;19;20104;-82
2023/03/19 03:02:58;;;;;;;4.50;1.85;;;;;;;11.74;63.93;99456.84;12193974;19;20010;-81
2023/03/19 03:06:59;;;;;;;5.63;2.33;;;;;;;11.67;64.43;99453.47;12193205;19;20035;-83
2023/03/19 03:11:01;;;;;;;4.25;1.95;;;;;;;11.62;64.74;99451.50;12175379;19;20006;-83
2023/03/19 03:15:08;;;;;;;5.75;2.10;;;;;;;11.61;65.17;99463.66;12193190;19;20007;-81
2023/03/19 03:19:10;;;;;;;5.20;2.40;;;;;;;11.62;65.23;99464.47;12186900;19;20038;-82
2023/03/19 03:23:11;;;;;;;6.47;2.20;;;;;;;11.66;65.33;99465.63;12169731;19;20011;-82
2023/03/19 03:27:13;;;;;;;5.95;2.22;;;;;;;11.66;65.41;99471.16;12194843;19;20002;-82
2023/03/19 03:31:15;;;;;;;6.45;2.13;;;;;;;11.62;66.02;99475.53;12195718;19;20030;-82
2023/03/19 03:35:21;;;;;;;10.45;2.47;;;;;;;11.55;66.45;99478.50;12180725;19;20006;-82
2023/03/19 03:39:23;;;;;;;5.43;2.38;;;;;;;11.47;66.99;99478.16;12206879;19;20010;-82
2023/03/19 03:43:25;;;;;;;4.60;2.17;;;;;;;11.44;67.77;99479.53;12208398;19;20174;-82
2023/03/19 03:47:26;;;;;;;5.97;2.25;;;;;;;11.46;67.95;99479.28;12186051;19;20011;-82
2023/03/19 03:51:28;;;;;;;3.60;2.17;;;;;;;11.49;68.11;99482.34;12209736;19;20015;-80
2023/03/19 03:55:31;;;;;;;6.32;2.90;;;;;;;11.58;68.52;99474.41;12212890;19;20030;-79
2023/03/19 03:59:32;;;;;;;4.68;1.77;;;;;;;11.66;68.40;99484.94;12190115;19;20010;-79
2023/03/19 04:03:34;;;;;;;6.57;2.17;;;;;;;11.76;68.32;99493.28;12213379;19;20404;-79
2023/03/19 04:07:37;;;;;;;4.75;1.92;;;;;;;11.81;68.84;99498.84;12216883;19;20090;-80
2023/03/19 04:11:40;;;;;;;6.05;2.25;;;;;;;11.86;68.72;99485.09;12237048;19;20007;-79
2023/03/19 04:15:42;;;;;;;5.20;2.28;;;;;;;11.91;68.44;99494.53;12274457;19;20009;-78
2023/03/19 04:19:45;;;;;;;4.60;2.30;;;;;;;11.94;68.41;99499.50;12223183;19;20483;-79
2023/03/19 04:23:47;;;;;;;4.80;2.60;;;;;;;11.91;68.64;99503.63;12255297;19;20014;-78
2023/03/19 04:27:49;;;;;;;6.20;2.47;;;;;;;11.90;68.70;99506.66;12254648;19;20011;-79
2023/03/19 04:31:51;;;;;;;8.53;2.60;;;;;;;11.89;68.89;99505.81;12204767;19;20007;-81
2023/03/19 04:35:54;;;;;;;4.78;2.15;;;;;;;11.84;69.17;99501.09;12211028;19;20014;-83
2023/03/19 04:39:56;;;;;;;6.13;2.25;;;;;;;11.76;69.60;99509.03;12212205;19;20009;-83
2023/03/19 04:43:57;;;;;;;6.40;2.60;;;;;;;11.68;69.85;99512.28;12190077;19;20076;-83
2023/03/19 04:48:01;;;;;;;6.22;2.70;;;;;;;11.67;69.91;99516.97;12208660;19;20049;-82
2023/03/19 04:52:05;;;;;;;5.95;2.40;;;;;;;11.65;70.15;99519.16;12212310;19;20089;-84
2023/03/19 04:56:07;;;;;;;5.43;2.42;;;;;;;11.64;70.29;99517.50;12184994;19;20003;-82
2023/03/19 05:00:10;;;;;;;6.07;2.80;;;;;;;11.62;70.47;99514.16;12209723;19;20046;-82
2023/03/19 05:04:13;;;;;;;6.55;2.55;;;;;;;11.58;70.87;99524.06;12208544;19;20026;-83
2023/03/19 05:08:16;;;;;;;4.93;2.10;;;;;;;11.54;71.32;99525.69;12178131;19;20014;-82
2023/03/19 05:12:17;;;;;;;3.58;2.25;;;;;;;11.49;71.80;99534.75;12200265;19;20011;-81
2023/03/19 05:16:23;;;;;;;5.07;2.45;;;;;;;11.46;71.93;99532.53;12199309;19;20354;-83
2023/03/19 05:20:27;;;;;;;8.50;2.97;;;;;;;11.45;72.68;99535.53;12182051;19;21222;-83
2023/03/19 05:24:35;;;;;;;4.22;2.47;;;;;;;11.40;73.16;99537.16;12202594;19;20012;-82
2023/03/19 05:28:38;;;;;;;7.50;2.50;;;;;;;11.39;73.57;99542.94;12198695;19;20460;-82
2023/03/19 05:32:40;;;;;;;7.60;2.78;;;;;;;11.38;73.91;99538.50;12181227;19;20063;-80
2023/03/19 05:36:48;;;;;;;5.47;2.30;;;;;;;11.36;73.70;99536.03;12197679;19;20030;-82
2023/03/19 05:40:52;;;;;;;5.43;2.63;;;;;;;11.35;74.13;99530.75;12178978;19;20669;-82
2023/03/19 05:45:07;;;;;;;7.47;2.75;;;;;;;11.37;74.54;99539.63;12201049;19;20003;-81
2023/03/19 05:49:18;;;;;;;5.00;2.30;;;;;;;11.36;74.21;99555.34;12202816;19;20008;-82
2023/03/19 05:53:20;;;;;;;6.97;2.90;;;;;;;11.36;74.39;99554.47;12179945;19;20006;-82
2023/03/19 05:57:57;;;;;;;7.05;3.65;;;;;;;11.33;74.89;99564.16;12200972;19;20016;-83
2023/03/19 06:02:00;;;;;;;5.50;3.28;;;;;;;11.38;75.20;99568.84;12182722;19;20779;-82
2023/03/19 06:06:03;;;;;;;8.98;3.65;;;;;;;11.45;74.78;99579.69;12204328;19;20038;-83
2023/03/19 06:10:10;;;;;;;7.28;3.70;;;;;;;11.48;74.81;99581.91;12202751;19;20039;-83
2023/03/19 06:14:12;;;;;;;5.53;3.23;;;;;;;11.53;74.82;99585.56;12177973;19;20027;-82
2023/03/19 06:18:18;;;;;;;7.93;3.30;;;;;;;11.57;75.10;99583.09;12207728;19;20015;-80
2023/03/19 06:22:21;;;;;;;9.32;3.55;;;;;;;11.64;75.27;99583.72;12222026;19;19998;-82
2023/03/19 06:26:24;;;;;;;9.70;3.77;;;;;;;11.71;75.39;99589.84;12191103;19;20003;-82
2023/03/19 06:30:28;;;;;;;5.50;3.20;;;;;;;11.81;74.96;99589.13;12217198;19;20643;-82
2023/03/19 06:34:33;;;;;;;6.57;3.83;;;;;;;11.89;75.29;99587.81;12213667;19;20460;-82
2023/03/19 06:38:35;;;;;;;8.65;3.78;;;;;;;11.98;75.33;99595.34;12187285;19;20034;-84
2023/03/19 06:42:37;;;;;;;6.88;3.90;;;;;;;12.12;74.84;99584.69;12206860;19;20055;-81
2023/03/19 06:46:39;;;;;;;5.18;3.20;;;;;;;12.23;74.80;99589.19;12204771;19;19998;-83
2023/03/19 06:50:41;;;;;;;7.32;3.22;;;;;;;12.30;75.15;99592.53;12184921;19;20032;-82
2023/03/19 06:54:43;;;;;;;6.40;3.13;;;;;;;12.47;74.51;99602.59;12202424;19;20038;-83
2023/03/19 06:58:45;;;;;;;6.97;3.85;;;;;;;12.62;74.36;99608.22;12198390;19;20101;-82
2023/03/19 07:02:47;;;;;;;8.93;3.73;;;;;;;12.80;73.76;99609.69;12200882;19;20010;-82
2023/03/19 07:06:48;;;;;;;7.28;2.97;;;;;;;12.97;72.91;99610.31;12198628;19;20002;-83
2023/03/19 07:10:50;;;;;;;10.38;3.70;;;;;;;13.17;71.83;99617.00;12190529;19;20010;-83
2023/03/19 07:14:54;;;;;;;11.65;4.35;;;;;;;13.41;71.17;99606.31;12215381;19;20010;-83
2023/03/19 07:18:56;;;;;;;8.13;3.50;;;;;;;13.65;70.53;99613.03;12214992;19;20038;-83
2023/03/19 07:22:58;;;;;;;9.25;3.53;;;;;;;13.89;69.69;99613.31;12190226;19;20571;-82
2023/03/19 07:26:59;;;;;;;9.18;3.97;;;;;;;14.12;68.46;99619.38;12210036;19;20393;-83
2023/03/19 07:31:01;;;;;;;8.23;3.38;;;;;;;14.38;67.85;99613.81;12214615;19;20417;-83
2023/03/19 07:35:05;;;;;;;10.65;3.15;;;;;;;14.67;66.73;99614.06;12183825;19;20010;-82
2023/03/19 07:39:08;;;;;;;6.90;3.35;;;;;;;14.78;64.48;99612.91;12203642;19;20010;-82
2023/03/19 07:43:10;;;;;;;7.53;3.20;;;;;;;14.87;64.77;99625.09;12201001;19;20006;-83
2023/03/19 07:47:12;;;;;;;9.48;3.30;;;;;;;14.88;63.92;99624.00;12178464;19;20031;-81
2023/03/19 07:51:29;;;;;;;7.20;2.90;;;;;;;14.88;63.52;99629.53;12204339;19;20035;-83
2023/03/19 07:55:31;;;;;;;4.23;2.63;;;;;;;15.01;62.84;99628.91;12202255;19;20006;-82
2023/03/19 07:59:32;;;;;;;6.60;2.90;;;;;;;15.04;62.27;99636.69;12182555;19;20429;-84
2023/03/19 08:03:34;;;;;;;6.13;3.13;;;;;;;15.07;61.74;99629.72;12202478;19;19999;-83
2023/03/19 08:07:36;;;;;;;5.22;2.95;;;;;;;15.10;61.87;99636.66;12207584;19;20019;-83
2023/03/19 08:11:38;;;;;;;5.13;2.78;;;;;;;14.98;61.98;99640.59;12183007;19;20515;-83
2023/03/19 08:15:40;;;;;;;6.90;3.00;;;;;;;14.90;62.27;99637.56;12179515;19;20014;-82
2023/03/19 08:19:43;;;;;;;9.20;3.40;;;;;;;14.78;62.55;99646.19;12208572;19;20026;-80
2023/03/19 08:23:45;;;;;;;6.47;2.65;;;;;;;14.68;62.71;99646.22;12184346;19;20010;-80
2023/03/19 08:27:47;;;;;;;8.30;3.20;;;;;;;14.62;63.31;99647.34;12208427;19;20015;-80
2023/03/19 08:31:49;;;;;;;7.32;3.13;;;;;;;14.66;63.56;99642.91;12193099;19;20051;-80
2023/03/19 08:35:51;;;;;;;7.53;2.95;;;;;;;14.79;63.53;99648.69;12211738;19;20010;-80
2023/03/19 08:39:53;;;;;;;6.43;3.33;;;;;;;14.86;62.97;99653.13;12223678;19;20021;-82
2023/03/19 08:43:55;;;;;;;5.53;2.92;;;;;;;14.84;62.62;99650.63;12245489;19;19999;-80
2023/03/19 08:47:57;;;;;;;9.32;3.53;;;;;;;14.91;63.11;99650.34;12264419;19;20007;-80
2023/03/19 08:51:59;;;;;;;8.35;3.25;;;;;;;15.22;62.76;99646.31;12259857;19;20055;-80
2023/03/19 08:56:05;;;;;;;8.02;2.92;;;;;;;15.91;61.98;99649.25;12235043;19;20014;-80
2023/03/19 09:00:07;;;;;;;6.57;3.25;;;;;;;16.45;58.57;99651.06;12237467;19;20479;-80
2023/03/19 09:04:09;;;;;;;5.93;3.05;;;;;;;16.59;56.34;99653.97;12215136;19;20077;-83
2023/03/19 09:08:11;;;;;;;7.65;2.95;;;;;;;16.63;56.28;99655.88;12192112;19;20006;-83
2023/03/19 09:12:15;;;;;;;5.15;2.90;;;;;;;16.67;56.75;99658.91;12234118;19;20006;-83
2023/03/19 09:16:17;;;;;;;5.25;2.92;;;;;;;16.98;55.59;99655.81;12220872;19;20015;-84
2023/03/19 09:20:20;;;;;;;6.80;2.83;;;;;;;17.11;54.76;99660.66;12219723;19;20011;-83
2023/03/19 09:24:22;;;;;;;5.13;2.50;;;;;;;17.23;53.89;99654.69;12249058;19;20009;-81
2023/03/19 09:28:24;;;;;;;4.35;2.25;;;;;;;17.59;52.55;99652.25;12211150;19;20494;-81
2023/03/19 09:32:26;;;;;;;7.25;2.35;;;;;;;17.73;52.52;99647.59;12190960;19;20014;-82
2023/03/19 09:36:28;;;;;;;4.43;1.58;;;;;;;17.81;50.97;99656.41;12209596;19;20030;-82
2023/03/19 09:40:35;;;;;;;4.47;2.35;;;;;;;17.89;51.02;99659.34;12205552;19;20123;-83
2023/03/19 09:44:43;;;;;;;5.70;2.47;;;;;;;17.64;50.52;99657.75;12183351;19;20405;-81
2023/03/19 09:48:55;;;;;;;6.38;2.65;;;;;;;17.59;50.07;99657.81;12184041;19;20006;-81
2023/03/19 09:53:02;;;;;;;7.60;2.65;;;;;;;17.52;48.38;99657.38;12181317;19;20018;-81
2023/03/19 09:57:04;;;;;;;6.20;2.63;;;;;;;17.40;49.80;99670.88;12203372;19;20034;-81
2023/03/19 10:01:06;;;;;;;10.85;2.28;;;;;;;17.58;50.03;99656.16;12205805;19;20006;-81
2023/03/19 10:05:08;;;;;;;6.75;2.50;;;;;;;17.57;49.61;99665.63;12181308;19;20023;-82
2023/03/19 10:09:39;;;;;;;6.60;2.95;;;;;;;17.55;49.60;99667.91;12204576;19;20006;-82
2023/03/19 10:13:55;;;;;;;3.58;2.15;;;;;;;17.58;49.22;99672.03;12205823;19;20464;-81
2023/03/19 10:18:01;;;;;;;3.78;2.10;;;;;;;18.02;49.84;99671.69;12188399;19;20010;-81
2023/03/19 10:22:09;;;;;;;5.80;2.15;;;;;;;18.50;47.88;99665.91;12216566;19;20379;-81
2023/03/19 10:26:17;;;;;;;7.00;2.55;;;;;;;18.73;48.05;99663.25;12245369;19;20006;-80
2023/03/19 10:30:19;;;;;;;6.72;2.85;;;;;;;19.13;46.73;99668.06;12259768;19;20002;-81
2023/03/19 10:34:30;;;;;;;8.75;3.05;;;;;;;19.61;46.17;99661.19;12202713;19;20333;-81
2023/03/19 10:38:38;;;;;;;6.18;2.92;;;;;;;19.53;44.80;99668.34;12180621;19;20500;-83
2023/03/19 10:43:02;;;;;;;6.28;3.15;;;;;;;19.41;45.50;99662.47;12209592;19;20372;-81
2023/03/19 10:47:13;;;;;;;5.28;2.63;;;;;;;18.78;45.50;99654.81;12200297;19;20161;-80
2023/03/19 10:51:23;;;;;;;4.03;2.67;;;;;;;18.50;46.64;99648.31;12240588;19;20099;-81
2023/03/19 10:55:29;;;;;;;6.35;3.33;;;;;;;18.61;46.96;99650.59;12229444;19;20002;-82
2023/03/19 10:59:35;;;;;;;6.82;3.25;;;;;;;18.74;46.02;99654.59;12204734;19;20614;-82
2023/03/19 11:03:50;;;;;;;7.38;2.67;;;;;;;19.28;44.58;99661.34;12229807;19;20003;-81
2023/03/19 11:08:04;;;;;;;4.78;3.22;;;;;;;19.31;43.24;99652.34;12210592;19;20009;-85
2023/03/19 11:12:32;;;;;;;5.70;2.50;;;;;;;19.34;45.80;99650.88;12240885;19;20006;-82
2023/03/19 11:17:05;;;;;;;5.05;3.28;;;;;;;19.68;45.38;99660.78;12234824;19;20014;-82
2023/03/19 11:21:22;;;;;;;10.23;2.70;;;;;;;20.00;43.73;99654.16;12199746;19;20026;-81
2023/03/19 11:25:51;;;;;;;6.03;2.60;;;;;;;20.63;40.55;99653.16;12220784;19;20006;-84
2023/03/19 11:29:52;;;;;;;5.60;3.00;;;;;;;20.29;41.01;99656.53;12188145;19;20007;-82
2023/03/19 11:34:10;;;;;;;6.90;2.70;;;;;;;20.59;40.61;99656.94;12219232;19;20558;-84
2023/03/19 11:38:27;;;;;;;5.63;3.05;;;;;;;20.70;39.55;99644.28;12190788;19;20373;-83
2023/03/19 11:42:51;;;;;;;7.43;3.28;;;;;;;20.76;38.79;99643.00;12212232;19;20172;-84
2023/03/19 11:47:06;;;;;;;5.13;2.55;;;;;;;20.11;38.81;99640.75;12191147;19;20384;-83
2023/03/19 11:51:42;;;;;;;6.00;2.78;;;;;;;19.91;39.53;99630.91;12207102;19;20086;-83
2023/03/19 11:56:19;;;;;;;4.80;2.75;;;;;;;20.32;39.63;99629.91;12200160;19;20007;-81
2023/03/19 12:00:35;;;;;;;7.45;2.67;;;;;;;20.45;38.65;99631.78;12212466;19;20002;-84
2023/03/19 12:05:08;;;;;;;5.65;2.72;;;;;;;19.81;39.44;99626.38;12209400;19;20014;-83
2023/03/19 12:09:34;;;;;;;7.25;2.53;;;;;;;19.55;40.02;99624.13;12184919;19;20094;-83
2023/03/19 12:13:59;;;;;;;4.47;2.55;;;;;;;19.35;40.67;99622.63;12212572;19;20007;-83
2023/03/19 12:18:37;;;;;;;4.60;2.38;;;;;;;19.19;41.72;99629.69;12185580;19;20002;-83
2023/03/19 12:22:58;;;;;;;7.13;2.65;;;;;;;19.45;41.21;99615.16;12204426;19;20010;-84
2023/03/19 12:27:06;;;;;;;7.40;2.60;;;;;;;19.58;41.03;99626.31;12186253;19;20396;-84
2023/03/19 12:31:30;;;;;;;4.35;2.67;;;;;;;19.84;40.47;99617.38;12202397;19;20519;-83
2023/03/19 12:35:37;;;;;;;8.07;2.85;;;;;;;19.65;40.11;99634.28;12184238;19;20002;-85
2023/03/19 12:39:49;;;;;;;4.85;2.75;;;;;;;19.30;40.94;99625.53;12206700;19;20002;-82
2023/03/19 12:43:57;;;;;;;6.20;2.72;;;;;;;18.86;42.00;99628.97;12193716;19;20022;-83
2023/03/19 12:48:24;;;;;;;6.53;2.90;;;;;;;18.74;43.11;99634.22;12227202;19;20003;-81
2023/03/19 12:52:38;;;;;;;5.43;2.70;;;;;;;18.86;43.06;99632.59;12211440;19;20022;-82
2023/03/19 12:57:07;;;;;;;5.00;2.58;;;;;;;18.87;43.29;99637.03;12186956;19;20070;-83
2023/03/19 13:01:35;;;;;;;6.82;2.50;;;;;;;18.72;44.26;99634.50;12204897;19;20002;-82
2023/03/19 13:05:48;;;;;;;5.40;2.80;;;;;;;18.98;44.69;99636.84;12181896;19;20055;-82
2023/03/19 13:10:07;;;;;;;9.95;3.58;;;;;;;18.56;51.05;99650.72;12210345;19;20002;-84
2023/03/19 13:14:25;;;;;;;6.30;3.20;;;;;;;18.30;52.53;99664.28;12186162;19;20108;-87
2023/03/19 13:18:46;;;;;;;5.80;3.10;;;;;;;18.28;52.50;99668.50;12207812;19;20062;-82
2023/03/19 13:22:56;;;;;;;6.97;2.80;;;;;;;18.06;52.72;99664.38;12184377;19;20018;-82
2023/03/19 13:27:00;;;;;;;4.82;2.25;;;;;;;17.94;53.27;99678.78;12201734;19;20003;-83
2023/03/19 13:31:16;;;;;;;2.90;1.67;;;;;;;18.02;53.55;99670.88;12199407;19;20020;-83
2023/03/19 13:35:41;;;;;;;5.22;2.15;;;;;;;18.15;54.09;99684.88;12185809;19;20003;-85
2023/03/19 13:39:47;;;;;;;3.92;1.88;;;;;;;17.50;55.87;99677.16;12211614;19;20036;-81
2023/03/19 13:43:53;;;;;;;5.70;2.20;;;;;;;17.10;56.63;99684.03;12190657;19;20014;-83
2023/03/19 13:47:57;;;;;;;3.20;1.90;;;;;;;16.90;58.26;99684.31;12205666;19;20010;-83
2023/03/19 13:52:19;;;;;;;4.95;2.40;;;;;;;16.83;59.14;99695.75;12211592;19;20035;-87
2023/03/19 13:56:22;;;;;;;5.57;3.03;;;;;;;16.39;61.58;99703.13;12183915;19;20006;-82
2023/03/19 14:00:43;;;;;;;6.80;2.63;;;;;;;15.97;64.47;99694.53;12202572;19;20409;-83
2023/03/19 14:04:51;;;;;;;5.20;2.75;;;;;;;15.76;65.55;99702.16;12201699;19;20017;-84
2023/03/19 14:08:53;;;;;;;8.77;3.05;;;;;;;15.40;68.25;99703.13;12212737;19;20007;-83
2023/03/19 14:13:08;;;;;;;5.63;2.95;;;;;;;15.14;71.13;99705.22;12206182;19;20007;-83
2023/03/19 14:17:15;;;;;;;5.30;3.03;;;;;;;15.04;70.93;99694.13;12186142;19;20026;-83
2023/03/19 14:21:42;;;;;;;4.00;2.38;;;;;;;14.95;72.42;99687.50;12233159;19;20076;-83
2023/03/19 14:26:23;;;;;;;3.70;2.38;;;;;;;14.85;73.70;99695.84;12241558;19;19995;-83
2023/03/19 14:30:36;;;;;;;6.53;2.53;;;;;;;14.78;75.62;99687.81;12211903;19;20100;-84
2023/03/19 14:34:40;;;;;;;5.50;2.35;;;;;;;14.75;76.31;99682.81;12205649;19;20503;-83
2023/03/19 14:38:52;;;;;;;4.80;2.70;;;;;;;14.86;79.82;99672.53;12180183;19;20035;-82
2023/03/19 14:43:33;;;;;;;3.20;1.77;;;;;;;14.82;80.25;99669.50;12201081;19;20011;-84
2023/03/19 14:47:48;;;;;;;1.83;1.48;;;;;;;14.83;80.94;99665.59;12177597;19;20085;-83
2023/03/19 14:52:02;;;;;;;2.63;1.77;;;;;;;15.12;80.97;99657.47;12211488;19;20034;-83
2023/03/19 14:56:18;;;;;;;4.50;1.95;;;;;;;15.54;79.69;99658.09;12179551;19;20010;-83
2023/03/19 15:00:20;;;;;;;2.75;1.38;;;;;;;15.81;77.69;99652.94;12200456;19;20002;-82
2023/03/19 15:04:24;;;;;;;6.80;2.40;;;;;;;15.99;76.95;99658.94;12199671;19;20464;-82
2023/03/19 15:08:28;;;;;;;2.70;1.27;;;;;;;16.38;76.41;99656.94;12176786;19;20007;-83
2023/03/19 15:12:42;;;;;;;4.13;1.40;;;;;;;16.66;73.48;99648.03;12197107;19;20007;-81
2023/03/19 15:17:17;;;;;;;3.17;1.48;;;;;;;16.62;71.86;99645.84;12196575;19;20014;-82
2023/03/19 15:21:20;;;;;;;4.38;1.45;;;;;;;16.57;73.29;99648.72;12093375;19;2004438;-81
2023/03/19 15:25:22;;;;;;;2.42;1.48;;;;;;;16.59;72.40;99646.44;12200836;19;20007;-83
2023/03/19 15:29:31;;;;;;;1.90;1.40;;;;;;;16.84;71.63;99637.03;12207913;19;20007;-83
2023/03/19 15:33:38;;;;;;;1.65;1.00;;;;;;;17.08;69.76;99647.34;12210108;19;20266;-83
2023/03/19 15:37:50;;;;;;;2.42;1.45;;;;;;;17.34;68.44;99635.88;12201042;19;20014;-82
2023/03/19 15:41:54;;;;;;;3.15;1.10;;;;;;;17.43;67.70;99636.84;12212795;19;20011;-82
2023/03/19 15:45:56;;;;;;;2.17;1.27;;;;;;;17.38;68.29;99637.78;12208475;19;20038;-83
2023/03/19 15:50:09;;;;;;;1.30;0.90;;;;;;;17.42;67.62;99649.97;12189651;19;20960;-82
2023/03/19 15:54:12;;;;;;;2.58;0.90;;;;;;;17.49;65.23;99647.66;12209380;19;20011;-81
2023/03/19 15:58:20;;;;;;;1.80;1.00;;;;;;;17.72;64.83;99645.09;12217220;19;20010;-83
2023/03/19 16:02:30;;;;;;;1.52;0.70;;;;;;;17.94;63.31;99653.69;12195453;19;20015;-82
2023/03/19 16:06:36;;;;;;;1.70;0.80;;;;;;;18.14;60.04;99652.53;12231572;19;20006;-82
2023/03/19 16:10:44;;;;;;;1.83;0.73;;;;;;;17.97;61.62;99650.31;12232461;19;20094;-81
2023/03/19 16:14:45;;;;;;;2.38;0.70;;;;;;;17.74;60.91;99651.19;12210328;19;20062;-83
2023/03/19 16:18:50;;;;;;;3.40;1.60;;;;;;;17.45;61.88;99668.84;12221777;19;21395;-82
2023/03/19 16:22:57;;;;;;;1.35;0.85;;;;;;;17.14;63.20;99665.66;12209288;19;20010;-82
2023/03/19 16:27:03;;;;;;;1.42;0.80;;;;;;;16.80;64.99;99669.34;12233158;19;20015;-82
2023/03/19 16:31:18;;;;;;;1.30;0.70;;;;;;;16.76;66.19;99668.28;12273658;19;20007;-81
2023/03/19 16:35:20;;;;;;;1.45;0.90;;;;;;;16.50;67.40;99664.91;12249215;19;19998;-80
2023/03/19 16:39:31;;;;;;;1.50;1.10;;;;;;;16.19;69.11;99667.13;12250685;19;20969;-81
2023/03/19 16:43:35;;;;;;;1.83;0.77;;;;;;;15.90;69.62;99669.84;12210482;19;20002;-82
2023/03/19 16:47:37;;;;;;;3.03;1.10;;;;;;;15.45;72.04;99674.53;12194829;19;20002;-81
2023/03/19 16:51:39;;;;;;;2.72;0.90;;;;;;;15.15;73.78;99683.81;12216632;19;20003;-82
2023/03/19 16:55:41;;;;;;;3.97;1.10;;;;;;;14.93;76.21;99681.38;12210251;19;20010;-82
2023/03/19 16:59:44;;;;;;;2.90;1.53;;;;;;;14.65;76.95;99692.00;12183459;19;20341;-81
2023/03/19 17:03:46;;;;;;;3.45;1.27;;;;;;;14.41;78.13;99686.16;12207346;19;20275;-82
2023/03/19 17:07:49;;;;;;;3.00;1.90;;;;;;;14.21;79.40;99708.34;12193257;19;20364;-81
2023/03/19 17:11:52;;;;;;;4.95;1.77;;;;;;;14.02;80.88;99708.88;12207587;19;20504;-81
2023/03/19 17:15:56;;;;;;;;;;;;;;;13.86;82.39;99718.25;12203299;19;20499;-81
2023/03/19 17:19:58;;;;;;;3.80;1.95;;;;;;;13.73;82.27;99719.63;12187719;19;19914;-80
2023/03/19 17:24:31;;;;;;;4.23;1.83;;;;;;;13.61;83.31;99722.63;12210431;19;20011;-82
2023/03/19 17:28:33;;;;;;;3.55;1.63;;;;;;;13.47;83.42;99732.53;12205718;19;20532;-80
2023/03/19 17:32:35;;;;;;;2.53;1.40;;;;;;;13.39;84.46;99735.84;12183058;19;20093;-81
2023/03/19 17:36:37;;;;;;;3.03;1.70;;;;;;;13.40;85.07;99740.28;12197989;19;20492;-81
2023/03/19 17:40:39;;;;;;;6.87;5.00;;;;;;;13.31;86.21;99736.38;12204403;19;20014;-80
2023/03/19 17:44:40;;;;;;;5.18;3.45;;;;;;;13.11;87.63;99740.66;12182178;19;20019;-81
2023/03/19 17:48:42;;;;;;;6.03;3.28;;;;;;;12.90;89.25;99747.16;12202718;19;20043;-80
2023/03/19 17:52:47;;;;;;;6.63;4.00;;;;;;;12.67;90.52;99752.00;12202318;19;20062;-80
2023/03/19 17:56:49;;;;;;;5.40;3.17;;;;;;;12.46;91.97;99761.22;12186774;19;20011;-80
2023/03/19 18:00:51;;;;;;;6.97;2.45;;;;;;;12.27;92.49;99760.78;12199378;19;20459;-80
2023/03/19 18:04:53;;;;;;;4.57;2.20;;;;;;;12.11;93.52;99762.56;12179380;19;20010;-80
2023/03/19 18:08:55;;;;;;;3.97;2.40;;;;;;;11.97;94.66;99773.19;12201185;19;20050;-81
2023/03/19 18:12:58;;;;;;;10.02;4.35;;;;;;;11.92;95.76;99773.13;12198766;19;20010;-81
2023/03/19 18:17:00;;;;;;;5.22;2.80;;;;;;;11.94;96.33;99781.16;12181186;19;20011;-81
2023/03/19 18:21:02;;;;;;;4.90;2.33;;;;;;;11.99;96.49;99789.50;12203333;19;20021;-81
2023/03/19 18:25:04;;;;;;;4.70;2.03;;;;;;;11.99;97.04;99772.94;12201062;19;20029;-79
2023/03/19 18:29:06;;;;;;;4.45;1.80;;;;;;;12.03;97.85;99785.13;12178302;19;20883;-81
2023/03/19 18:33:24;;;;;;;2.63;1.52;;;;;;;12.05;98.75;99782.94;12199737;19;20031;-81
2023/03/19 18:37:30;;;;;;;9.02;3.58;;;;;;;11.99;98.70;99782.06;12189907;19;20476;-81
2023/03/19 18:41:33;;;;;;;6.80;3.20;;;;;;;11.91;99.53;99781.69;12176612;19;20027;-81
2023/03/19 18:45:39;;;;;;;4.72;2.65;;;;;;;11.91;100.00;99779.75;12200295;19;20033;-81
2023/03/19 18:49:42;;;;;;;4.50;2.40;;;;;;;11.94;100.00;99783.94;12201581;19;20011;-81
2023/03/19 18:53:43;;;;;;;4.17;1.90;;;;;;;11.95;100.00;99783.66;12175067;19;20002;-81
2023/03/19 18:57:50;;;;;;;3.50;2.05;;;;;;;12.00;100.00;99785.66;12196101;19;20542;-81
2023/03/19 19:01:59;;;;;;;3.25;2.03;;;;;;;12.01;100.00;99790.06;12173643;19;20081;-81
2023/03/19 19:06:01;;;;;;;3.90;2.00;;;;;;;11.95;100.00;99788.34;12201667;19;20090;-81
2023/03/19 19:10:04;;;;;;;4.85;1.77;;;;;;;11.84;100.00;99796.50;12215284;19;20014;-81